Time;durP1;ratioP1;P1;durP2;ratioP2;P2;SDS_P1;SDS_P2;PMS_P1;PMS_P2;Temp;Humidity;BMP_temperature;BMP_pressure;BME280_temperature;BME280_humidity;BME280_pressure;Samples;Min_cycle;Max_cycle;Signal;HPM_P1;HPM_P2
2021/12/13 00:00:27;;;;;;;17.92;16.13;;;;;;;;;;5062109;28;24537;-58
2021/12/13 00:02:55;;;;;;;22.10;18.75;;;;;;;;;;5060346;28;24407;-58
2021/12/13 00:05:24;;;;;;;18.55;16.65;;;;;;;;;;5062714;28;24416;-58
2021/12/13 00:07:58;;;;;;;19.25;16.60;;;;;;;;;;5061753;28;24514;-58
2021/12/13 00:10:28;;;;;;;20.63;17.75;;;;;;;;;;5064501;28;24418;-58
2021/12/13 00:12:59;;;;;;;18.60;16.63;;;;;;;;;;5061037;28;24554;-58
2021/12/13 00:15:26;;;;;;;18.80;16.80;;;;;;;;;;5062290;28;24426;-58
2021/12/13 00:17:52;;;;;;;18.45;16.55;;;;;;;;;;5059667;28;24427;-58
2021/12/13 00:20:28;;;;;;;18.30;16.40;;;;;;;;;;5064317;28;24440;-58
2021/12/13 00:22:54;;;;;;;19.38;17.35;;;;;;;;;;5061559;28;24426;-58
2021/12/13 00:25:20;;;;;;;19.13;17.13;;;;;;;;;;5059384;28;24474;-58
2021/12/13 00:27:52;;;;;;;17.85;15.95;;;;;;;;;;5061824;28;24423;-58
2021/12/13 00:30:36;;;;;;;18.30;16.40;;;;;;;;;;5058701;28;24518;-58
2021/12/13 00:33:20;;;;;;;17.60;15.80;;;;;;;;;;5061264;28;24439;-58
2021/12/13 00:35:49;;;;;;;18.30;16.40;;;;;;;;;;5061689;28;24468;-58
2021/12/13 00:38:15;;;;;;;19.08;17.08;;;;;;;;;;5060685;28;24996;-58
2021/12/13 00:40:47;;;;;;;19.00;17.00;;;;;;;;;;5059804;28;25029;-59
2021/12/13 00:43:14;;;;;;;18.73;16.83;;;;;;;;;;5059663;28;24857;-58
2021/12/13 00:45:49;;;;;;;18.80;16.63;;;;;;;;;;5059748;28;24457;-58
2021/12/13 00:48:15;;;;;;;19.40;16.85;;;;;;;;;;5062817;28;24772;-58
2021/12/13 00:50:41;;;;;;;19.80;17.23;;;;;;;;;;5062791;28;25031;-58
2021/12/13 00:53:07;;;;;;;19.63;17.20;;;;;;;;;;5060800;28;24491;-58
2021/12/13 00:55:34;;;;;;;18.20;16.23;;;;;;;;;;5055093;28;24788;-58
2021/12/13 00:58:07;;;;;;;19.50;16.70;;;;;;;;;;5061241;28;24993;-58
2021/12/13 01:00:41;;;;;;;18.38;16.38;;;;;;;;;;5062913;28;24442;-58
2021/12/13 01:03:13;;;;;;;18.63;16.67;;;;;;;;;;5060452;28;24962;-58
2021/12/13 01:05:57;;;;;;;20.58;18.40;;;;;;;;;;5060270;28;24502;-58
2021/12/13 01:08:37;;;;;;;19.65;17.55;;;;;;;;;;5061627;28;24966;-57
2021/12/13 01:11:16;;;;;;;18.48;16.58;;;;;;;;;;5057376;28;24434;-58
2021/12/13 01:13:54;;;;;;;19.00;17.00;;;;;;;;;;5061714;28;24434;-58
2021/12/13 01:16:36;;;;;;;18.53;16.50;;;;;;;;;;5049050;28;24490;-58
2021/12/13 01:22:19;;;;;;;18.63;16.63;;;;;;;;;;5062165;28;24507;-58
2021/12/13 01:27:36;;;;;;;19.30;17.20;;;;;;;;;;5054454;28;24426;-58
2021/12/13 01:30:03;;;;;;;18.67;16.75;;;;;;;;;;5063069;28;24469;-58
2021/12/13 01:32:36;;;;;;;18.30;16.40;;;;;;;;;;5062435;28;24407;-58
2021/12/13 01:35:01;;;;;;;19.65;17.60;;;;;;;;;;5060223;28;24469;-59
2021/12/13 01:37:29;;;;;;;18.90;16.90;;;;;;;;;;5055338;28;24509;-59
2021/12/13 01:39:56;;;;;;;19.05;16.40;;;;;;;;;;5055255;28;24496;-58
2021/12/13 01:42:23;;;;;;;21.08;18.77;;;;;;;;;;5060016;28;24859;-58
2021/12/13 01:44:51;;;;;;;18.50;16.25;;;;;;;;;;5060401;28;24422;-58
2021/12/13 01:47:18;;;;;;;18.35;16.20;;;;;;;;;;5061203;28;24419;-58
2021/12/13 01:49:46;;;;;;;18.83;16.83;;;;;;;;;;5060639;28;24411;-58
2021/12/13 01:52:16;;;;;;;21.85;19.55;;;;;;;;;;5055004;28;24487;-56
2021/12/13 01:54:41;;;;;;;19.83;17.73;;;;;;;;;;5058711;28;24419;-58
2021/12/13 01:59:52;;;;;;;20.88;18.58;;;;;;;;;;5057911;28;24430;-57
2021/12/13 02:02:23;;;;;;;20.33;18.13;;;;;;;;;;5060078;28;24517;-57
2021/12/13 02:05:06;;;;;;;20.48;17.67;;;;;;;;;;5060812;28;24437;-57
2021/12/13 02:07:37;;;;;;;17.55;15.75;;;;;;;;;;5066412;28;24522;-57
2021/12/13 02:10:04;;;;;;;18.30;16.30;;;;;;;;;;5062187;28;24411;-57
2021/12/13 02:12:32;;;;;;;17.50;15.60;;;;;;;;;;5061874;28;24423;-57
2021/12/13 02:17:42;;;;;;;15.80;14.20;;;;;;;;;;5060971;28;24827;-57
2021/12/13 02:20:28;;;;;;;17.27;15.48;;;;;;;;;;5065634;28;24832;-57
2021/12/13 02:22:54;;;;;;;15.88;14.27;;;;;;;;;;5063372;28;24853;-57
2021/12/13 02:25:28;;;;;;;15.95;14.25;;;;;;;;;;5065579;28;24943;-57
2021/12/13 02:28:02;;;;;;;15.82;14.23;;;;;;;;;;5061727;28;25015;-57
2021/12/13 02:30:29;;;;;;;16.90;15.10;;;;;;;;;;5063942;28;24496;-57
2021/12/13 02:32:55;;;;;;;17.10;15.30;;;;;;;;;;5064686;28;24869;-57
2021/12/13 02:35:22;;;;;;;17.17;15.30;;;;;;;;;;5061405;28;24510;-57
2021/12/13 02:37:47;;;;;;;17.48;15.60;;;;;;;;;;5056365;28;24417;-57
2021/12/13 02:40:13;;;;;;;16.83;15.02;;;;;;;;;;5064330;28;24785;-57
2021/12/13 02:42:39;;;;;;;16.60;14.80;;;;;;;;;;5064539;28;24982;-57
2021/12/13 02:45:19;;;;;;;18.30;16.30;;;;;;;;;;5063105;28;24513;-56
2021/12/13 02:47:46;;;;;;;16.95;15.15;;;;;;;;;;5065282;28;24432;-57
2021/12/13 02:50:18;;;;;;;17.13;15.43;;;;;;;;;;5061120;28;24513;-57
2021/12/13 02:52:44;;;;;;;17.97;16.03;;;;;;;;;;5064167;28;24414;-56
2021/12/13 02:55:12;;;;;;;16.43;14.73;;;;;;;;;;5060806;28;24415;-56
2021/12/13 02:57:39;;;;;;;16.70;14.90;;;;;;;;;;5058194;28;24513;-56
2021/12/13 03:00:12;;;;;;;18.02;16.13;;;;;;;;;;5063423;28;24434;-57
2021/12/13 03:02:40;;;;;;;16.60;14.90;;;;;;;;;;5054007;28;24415;-57
2021/12/13 03:05:07;;;;;;;18.13;16.23;;;;;;;;;;5059070;28;24411;-56
2021/12/13 03:07:35;;;;;;;17.05;15.25;;;;;;;;;;5059564;28;24825;-56
2021/12/13 03:10:03;;;;;;;17.80;15.90;;;;;;;;;;5063829;28;24411;-56
2021/12/13 03:12:28;;;;;;;18.27;16.38;;;;;;;;;;5066302;28;24718;-56
2021/12/13 03:14:56;;;;;;;18.27;15.60;;;;;;;;;;5064879;28;24985;-56
2021/12/13 03:17:24;;;;;;;16.50;14.70;;;;;;;;;;5063020;28;24438;-57
2021/12/13 03:20:08;;;;;;;17.25;15.45;;;;;;;;;;5059506;28;25042;-56
2021/12/13 03:22:51;;;;;;;17.63;15.73;;;;;;;;;;5058371;28;24425;-57
2021/12/13 03:25:35;;;;;;;16.50;14.70;;;;;;;;;;5065101;28;24415;-57
2021/12/13 03:28:19;;;;;;;18.80;16.50;;;;;;;;;;5062165;28;24410;-57
2021/12/13 03:31:01;;;;;;;16.98;15.18;;;;;;;;;;5065225;28;24421;-56
2021/12/13 03:33:34;;;;;;;17.48;15.63;;;;;;;;;;5064087;28;24442;-57
2021/12/13 03:36:04;;;;;;;17.20;15.10;;;;;;;;;;5062761;28;24422;-57
2021/12/13 03:38:31;;;;;;;17.40;15.10;;;;;;;;;;5064005;28;24419;-56
2021/12/13 03:40:57;;;;;;;17.00;15.20;;;;;;;;;;5056726;28;24480;-56
2021/12/13 03:43:28;;;;;;;19.15;17.00;;;;;;;;;;5063595;28;24556;-56
2021/12/13 03:45:54;;;;;;;18.33;16.05;;;;;;;;;;5063202;28;24409;-57
2021/12/13 03:48:21;;;;;;;17.77;15.37;;;;;;;;;;5059828;28;24456;-57
2021/12/13 03:50:47;;;;;;;16.83;15.02;;;;;;;;;;5049868;28;24443;-57
2021/12/13 03:53:15;;;;;;;17.60;15.65;;;;;;;;;;5060158;28;24874;-57
2021/12/13 03:55:41;;;;;;;17.60;15.70;;;;;;;;;;5062362;28;24754;-57
2021/12/13 03:58:07;;;;;;;19.80;17.20;;;;;;;;;;5062501;28;24546;-57
2021/12/13 04:00:36;;;;;;;16.40;14.80;;;;;;;;;;5060093;28;24449;-58
2021/12/13 04:03:03;;;;;;;17.30;15.50;;;;;;;;;;5062054;28;25008;-57
2021/12/13 04:05:29;;;;;;;18.48;15.25;;;;;;;;;;5063878;28;24560;-57
2021/12/13 04:07:56;;;;;;;16.75;14.95;;;;;;;;;;5058506;28;24506;-58
2021/12/13 04:10:21;;;;;;;16.30;14.60;;;;;;;;;;5056661;28;24528;-58
2021/12/13 04:12:50;;;;;;;16.65;14.77;;;;;;;;;;5048475;28;24411;-57
2021/12/13 04:15:24;;;;;;;16.10;14.25;;;;;;;;;;5056586;28;24437;-58
2021/12/13 04:18:15;;;;;;;16.63;14.93;;;;;;;;;;5063575;28;24411;-57
2021/12/13 04:20:41;;;;;;;15.75;14.05;;;;;;;;;;5058093;28;24427;-58
2021/12/13 04:23:14;;;;;;;16.17;14.47;;;;;;;;;;5051212;28;24438;-58
2021/12/13 04:25:42;;;;;;;16.45;14.75;;;;;;;;;;5057269;28;24418;-60
2021/12/13 04:28:09;;;;;;;16.00;14.30;;;;;;;;;;5062900;28;24815;-58
2021/12/13 04:30:39;;;;;;;15.40;13.80;;;;;;;;;;5063444;28;24761;-58
2021/12/13 04:33:06;;;;;;;16.57;14.30;;;;;;;;;;5050982;28;24530;-57
2021/12/13 04:35:31;;;;;;;16.00;14.30;;;;;;;;;;5057964;28;25078;-57
2021/12/13 04:37:59;;;;;;;17.20;15.40;;;;;;;;;;5060979;28;24528;-58
2021/12/13 04:40:32;;;;;;;15.63;14.02;;;;;;;;;;5056190;28;24438;-57
2021/12/13 04:43:05;;;;;;;15.55;13.93;;;;;;;;;;5051766;28;24414;-58
2021/12/13 04:45:31;;;;;;;15.25;13.70;;;;;;;;;;5054263;28;25039;-58
2021/12/13 04:48:01;;;;;;;15.20;13.60;;;;;;;;;;5065056;28;24595;-58
2021/12/13 04:50:29;;;;;;;15.68;14.07;;;;;;;;;;5060786;28;24407;-59
2021/12/13 04:52:55;;;;;;;15.13;13.63;;;;;;;;;;5057530;28;24434;-60
2021/12/13 04:55:22;;;;;;;15.30;13.80;;;;;;;;;;5051293;28;24406;-57
2021/12/13 04:57:49;;;;;;;15.40;13.80;;;;;;;;;;5059425;28;24415;-57
2021/12/13 05:00:16;;;;;;;15.70;14.10;;;;;;;;;;5060192;28;24480;-58
2021/12/13 05:02:44;;;;;;;14.57;13.17;;;;;;;;;;5061659;28;24975;-57
2021/12/13 05:05:09;;;;;;;15.68;14.07;;;;;;;;;;5056330;28;24395;-57
2021/12/13 05:07:35;;;;;;;15.60;14.00;;;;;;;;;;5057029;28;24464;-57
2021/12/13 05:10:00;;;;;;;15.68;14.07;;;;;;;;;;5062699;28;24460;-57
2021/12/13 05:12:28;;;;;;;16.20;14.50;;;;;;;;;;5063073;28;24775;-58
2021/12/13 05:14:59;;;;;;;17.45;15.65;;;;;;;;;;5059532;28;24644;-57
2021/12/13 05:17:26;;;;;;;15.50;13.90;;;;;;;;;;5055832;28;24427;-57
2021/12/13 05:20:11;;;;;;;16.23;14.52;;;;;;;;;;5057362;28;24435;-57
2021/12/13 05:22:48;;;;;;;14.60;13.10;;;;;;;;;;5059041;28;24578;-57
2021/12/13 05:25:19;;;;;;;15.10;13.57;;;;;;;;;;5061128;28;24407;-57
2021/12/13 05:27:45;;;;;;;15.38;13.77;;;;;;;;;;5061015;28;24494;-57
2021/12/13 05:30:13;;;;;;;14.60;13.10;;;;;;;;;;5057302;28;24836;-59
2021/12/13 05:32:40;;;;;;;13.23;11.93;;;;;;;;;;5057355;28;24903;-59
2021/12/13 05:35:14;;;;;;;15.98;14.38;;;;;;;;;;5056706;28;24435;-59
2021/12/13 05:37:41;;;;;;;14.98;13.48;;;;;;;;;;5055673;28;24422;-59
2021/12/13 05:40:08;;;;;;;16.50;14.80;;;;;;;;;;5049185;28;24429;-59
2021/12/13 05:42:39;;;;;;;15.25;13.70;;;;;;;;;;5058566;28;24963;-59
2021/12/13 05:45:06;;;;;;;14.80;13.30;;;;;;;;;;5051993;28;24575;-57
2021/12/13 05:47:32;;;;;;;15.90;14.30;;;;;;;;;;5057161;28;25210;-57
2021/12/13 05:49:58;;;;;;;15.93;14.32;;;;;;;;;;5056073;28;24517;-57
2021/12/13 05:52:29;;;;;;;15.77;14.18;;;;;;;;;;5050201;28;24419;-57
2021/12/13 05:54:59;;;;;;;15.82;13.70;;;;;;;;;;5052448;28;24419;-57
2021/12/13 05:57:30;;;;;;;14.30;12.90;;;;;;;;;;5055145;28;24406;-57
2021/12/13 06:00:15;;;;;;;15.60;14.00;;;;;;;;;;5053119;28;24442;-57
2021/12/13 06:03:02;;;;;;;15.88;14.25;;;;;;;;;;5058588;28;24414;-58
2021/12/13 06:05:34;;;;;;;16.70;15.00;;;;;;;;;;5052802;28;24450;-57
2021/12/13 06:08:03;;;;;;;16.40;14.70;;;;;;;;;;5053344;28;25494;-58
2021/12/13 06:10:35;;;;;;;15.77;14.23;;;;;;;;;;5052551;28;24473;-57
2021/12/13 06:13:03;;;;;;;14.80;13.38;;;;;;;;;;5058763;28;24429;-58
2021/12/13 06:15:33;;;;;;;16.60;14.90;;;;;;;;;;5058442;28;24523;-58
2021/12/13 06:18:01;;;;;;;16.57;14.90;;;;;;;;;;5057979;28;24441;-58
2021/12/13 06:20:29;;;;;;;16.50;14.80;;;;;;;;;;5055799;28;24430;-57
2021/12/13 06:23:03;;;;;;;16.58;14.77;;;;;;;;;;5051722;28;25023;-57
2021/12/13 06:25:29;;;;;;;16.75;14.95;;;;;;;;;;5059789;28;25087;-57
2021/12/13 06:27:55;;;;;;;17.10;15.30;;;;;;;;;;5058710;28;24521;-57
2021/12/13 06:30:24;;;;;;;16.90;15.20;;;;;;;;;;5060269;28;24776;-58
2021/12/13 06:32:58;;;;;;;15.60;13.90;;;;;;;;;;5044811;28;24504;-58
2021/12/13 06:35:29;;;;;;;16.15;14.45;;;;;;;;;;5042203;28;24502;-58
2021/12/13 06:37:54;;;;;;;19.73;17.73;;;;;;;;;;5051111;28;24429;-57
2021/12/13 06:40:27;;;;;;;18.20;16.20;;;;;;;;;;5061543;28;24505;-57
2021/12/13 06:42:53;;;;;;;16.35;14.65;;;;;;;;;;5053404;28;24449;-58
2021/12/13 06:45:23;;;;;;;16.40;14.60;;;;;;;;;;5037363;28;24415;-58
2021/12/13 06:47:50;;;;;;;15.20;13.70;;;;;;;;;;5042742;28;24498;-57
2021/12/13 06:50:22;;;;;;;16.73;15.02;;;;;;;;;;5061171;28;24787;-57
2021/12/13 06:52:48;;;;;;;16.33;14.80;;;;;;;;;;5053765;28;24454;-58
2021/12/13 06:55:17;;;;;;;20.13;17.65;;;;;;;;;;5059834;28;24465;-58
2021/12/13 06:57:48;;;;;;;17.73;15.82;;;;;;;;;;5051129;28;24835;-58
2021/12/13 07:00:19;;;;;;;16.50;14.80;;;;;;;;;;5059732;28;24434;-58
2021/12/13 07:02:47;;;;;;;16.50;14.80;;;;;;;;;;5057621;28;24423;-58
2021/12/13 07:05:23;;;;;;;15.32;13.82;;;;;;;;;;5057883;28;24509;-58
2021/12/13 07:07:51;;;;;;;16.65;14.95;;;;;;;;;;5059400;28;24914;-58
2021/12/13 07:10:18;;;;;;;15.35;13.75;;;;;;;;;;5053109;28;24515;-58
2021/12/13 07:12:47;;;;;;;16.13;14.43;;;;;;;;;;5054334;28;24415;-58
2021/12/13 07:15:31;;;;;;;16.30;14.60;;;;;;;;;;5060509;28;24395;-57
2021/12/13 07:18:20;;;;;;;16.02;14.43;;;;;;;;;;5057323;28;24476;-58
2021/12/13 07:20:51;;;;;;;16.70;14.90;;;;;;;;;;5050135;28;25508;-57
2021/12/13 07:23:16;;;;;;;16.33;14.52;;;;;;;;;;5057956;28;24422;-57
2021/12/13 07:25:42;;;;;;;16.10;14.50;;;;;;;;;;5049334;28;24423;-57
2021/12/13 07:28:08;;;;;;;16.30;14.60;;;;;;;;;;5057638;28;24410;-58
2021/12/13 07:30:33;;;;;;;16.90;15.10;;;;;;;;;;5055761;28;24423;-57
2021/12/13 07:33:03;;;;;;;17.90;15.98;;;;;;;;;;5053145;28;24553;-57
2021/12/13 07:35:36;;;;;;;16.77;14.98;;;;;;;;;;5061197;28;24495;-57
2021/12/13 07:38:01;;;;;;;15.60;13.90;;;;;;;;;;5056167;28;24422;-58
2021/12/13 07:40:29;;;;;;;16.35;14.65;;;;;;;;;;5061172;28;24901;-58
2021/12/13 07:43:06;;;;;;;16.90;14.80;;;;;;;;;;5058757;28;24419;-58
2021/12/13 07:45:37;;;;;;;15.80;14.20;;;;;;;;;;5055256;28;24449;-58
2021/12/13 07:48:08;;;;;;;15.52;13.88;;;;;;;;;;5054479;28;24505;-57
2021/12/13 07:50:33;;;;;;;17.15;15.35;;;;;;;;;;5052292;28;24424;-58
2021/12/13 07:53:00;;;;;;;16.70;14.95;;;;;;;;;;5043157;28;24398;-57
2021/12/13 07:55:28;;;;;;;15.63;13.98;;;;;;;;;;5044018;28;25014;-58
2021/12/13 07:57:54;;;;;;;16.23;14.52;;;;;;;;;;5046653;28;24430;-58
2021/12/13 08:00:23;;;;;;;17.23;14.98;;;;;;;;;;5058189;28;24479;-58
2021/12/13 08:02:53;;;;;;;15.82;14.23;;;;;;;;;;5060590;28;24549;-58
2021/12/13 08:05:23;;;;;;;16.30;14.60;;;;;;;;;;5064039;28;24387;-57
2021/12/13 08:07:51;;;;;;;16.30;14.60;;;;;;;;;;5048537;28;24411;-58
2021/12/13 08:10:30;;;;;;;16.23;14.52;;;;;;;;;;5044326;28;24423;-57
2021/12/13 08:13:00;;;;;;;16.27;14.57;;;;;;;;;;5042860;28;24403;-58
2021/12/13 08:15:28;;;;;;;16.63;14.88;;;;;;;;;;5042163;28;24411;-58
2021/12/13 08:18:03;;;;;;;15.85;14.25;;;;;;;;;;5043421;28;24418;-57
2021/12/13 08:20:31;;;;;;;16.52;14.70;;;;;;;;;;5059859;28;24426;-57
2021/12/13 08:22:57;;;;;;;17.05;15.20;;;;;;;;;;5043686;28;24486;-56
2021/12/13 08:25:27;;;;;;;16.90;15.18;;;;;;;;;;5039947;28;24822;-59
2021/12/13 08:27:58;;;;;;;17.23;15.43;;;;;;;;;;5061885;28;24816;-59
2021/12/13 08:30:32;;;;;;;17.85;15.95;;;;;;;;;;5061953;28;24471;-59
2021/12/13 08:33:06;;;;;;;16.95;15.15;;;;;;;;;;5059881;28;24415;-57
2021/12/13 08:35:45;;;;;;;19.35;16.92;;;;;;;;;;5057238;28;24494;-56
2021/12/13 08:38:10;;;;;;;17.95;14.98;;;;;;;;;;5039467;28;24494;-58
2021/12/13 08:40:35;;;;;;;17.00;15.20;;;;;;;;;;5043755;28;24860;-57
2021/12/13 08:43:00;;;;;;;17.17;15.13;;;;;;;;;;5041776;28;24951;-57
2021/12/13 08:45:28;;;;;;;15.57;13.98;;;;;;;;;;5045641;28;24433;-57
2021/12/13 08:47:56;;;;;;;16.45;14.63;;;;;;;;;;5040000;28;24513;-57
2021/12/13 08:50:41;;;;;;;16.20;14.50;;;;;;;;;;5044486;28;24415;-57
2021/12/13 08:53:10;;;;;;;16.45;14.73;;;;;;;;;;5063120;28;24411;-57
2021/12/13 08:55:38;;;;;;;16.38;14.50;;;;;;;;;;5063802;28;24415;-57
2021/12/13 08:58:03;;;;;;;16.77;14.98;;;;;;;;;;5049202;28;24430;-57
2021/12/13 09:00:35;;;;;;;16.65;14.50;;;;;;;;;;5054691;28;24999;-58
2021/12/13 09:03:00;;;;;;;15.85;14.15;;;;;;;;;;5047652;28;24404;-58
2021/12/13 09:05:28;;;;;;;17.00;15.20;;;;;;;;;;5048245;28;24527;-57
2021/12/13 09:07:56;;;;;;;17.13;15.07;;;;;;;;;;5058151;28;24488;-58
2021/12/13 09:10:33;;;;;;;19.73;17.30;;;;;;;;;;5063212;28;24414;-57
2021/12/13 09:12:59;;;;;;;16.75;14.95;;;;;;;;;;5038783;28;24940;-57
2021/12/13 09:15:26;;;;;;;18.33;15.97;;;;;;;;;;5039978;28;24415;-57
2021/12/13 09:17:52;;;;;;;19.45;17.20;;;;;;;;;;5056214;28;24787;-57
2021/12/13 09:20:19;;;;;;;17.27;15.40;;;;;;;;;;5062695;28;24415;-57
2021/12/13 09:22:47;;;;;;;18.48;16.58;;;;;;;;;;5062902;28;24409;-57
2021/12/13 09:25:15;;;;;;;19.38;17.27;;;;;;;;;;5058307;28;25291;-57
2021/12/13 09:27:51;;;;;;;17.00;15.20;;;;;;;;;;5055008;28;24415;-58
2021/12/13 09:30:23;;;;;;;21.23;17.83;;;;;;;;;;5040390;28;24527;-57
2021/12/13 09:32:58;;;;;;;20.85;18.67;;;;;;;;;;5041914;28;24395;-57
2021/12/13 09:35:29;;;;;;;20.92;18.75;;;;;;;;;;5042256;28;24507;-57
2021/12/13 09:37:56;;;;;;;21.70;19.50;;;;;;;;;;5046926;28;24507;-58
2021/12/13 09:40:36;;;;;;;20.92;18.73;;;;;;;;;;5059660;28;24442;-59
2021/12/13 09:43:02;;;;;;;19.48;17.48;;;;;;;;;;5062610;28;24394;-57
2021/12/13 09:45:43;;;;;;;18.35;16.20;;;;;;;;;;5061978;28;24411;-57
2021/12/13 09:48:16;;;;;;;18.38;16.38;;;;;;;;;;5058231;28;24949;-58
2021/12/13 09:50:44;;;;;;;18.90;16.90;;;;;;;;;;5055762;28;24510;-58
2021/12/13 09:53:09;;;;;;;22.97;19.70;;;;;;;;;;5058413;28;24411;-58
2021/12/13 09:55:41;;;;;;;20.27;18.17;;;;;;;;;;5062354;28;24389;-58
2021/12/13 09:58:08;;;;;;;19.25;16.88;;;;;;;;;;5061261;28;24415;-58
2021/12/13 10:01:02;;;;;;;19.47;17.00;;;;;;;;;;5050361;28;24463;-58
2021/12/13 10:03:46;;;;;;;18.38;16.38;;;;;;;;;;5026741;28;24421;-58
2021/12/13 10:06:12;;;;;;;17.13;15.33;;;;;;;;;;5036916;28;24578;-58
2021/12/13 10:08:40;;;;;;;18.67;16.02;;;;;;;;;;5040649;28;24535;-58
2021/12/13 10:11:07;;;;;;;19.50;17.40;;;;;;;;;;5052286;28;24517;-58
2021/12/13 10:13:36;;;;;;;21.30;17.70;;;;;;;;;;5062333;28;24415;-58
2021/12/13 10:16:07;;;;;;;19.35;17.30;;;;;;;;;;5059408;28;24406;-58
2021/12/13 10:18:35;;;;;;;18.17;15.98;;;;;;;;;;5060469;28;24415;-57
2021/12/13 10:21:06;;;;;;;18.60;16.60;;;;;;;;;;5059095;28;24540;-57
2021/12/13 10:23:34;;;;;;;18.20;16.30;;;;;;;;;;5059994;28;24433;-58
2021/12/13 10:26:00;;;;;;;18.67;16.67;;;;;;;;;;5060741;28;24387;-58
2021/12/13 10:28:28;;;;;;;19.02;16.92;;;;;;;;;;5054910;28;24766;-58
2021/12/13 10:31:18;;;;;;;18.40;16.50;;;;;;;;;;5051797;28;24419;-59
2021/12/13 10:33:43;;;;;;;18.73;16.73;;;;;;;;;;5060056;28;24633;-59
2021/12/13 10:36:09;;;;;;;17.00;15.20;;;;;;;;;;5061929;28;24975;-59
2021/12/13 10:38:39;;;;;;;17.13;15.32;;;;;;;;;;5059869;28;24419;-59
2021/12/13 10:41:10;;;;;;;18.25;16.27;;;;;;;;;;5065450;28;24929;-58
2021/12/13 10:43:40;;;;;;;22.63;20.20;;;;;;;;;;5063865;28;24472;-58
2021/12/13 10:46:10;;;;;;;18.73;16.50;;;;;;;;;;5061995;28;24908;-58
2021/12/13 10:48:42;;;;;;;18.48;16.48;;;;;;;;;;5059905;28;24391;-58
2021/12/13 10:51:09;;;;;;;18.33;16.20;;;;;;;;;;5064026;28;25048;-58
2021/12/13 10:53:35;;;;;;;19.27;16.63;;;;;;;;;;5065639;28;24765;-58
2021/12/13 10:56:04;;;;;;;21.58;18.27;;;;;;;;;;5062703;28;24963;-58
2021/12/13 10:58:32;;;;;;;17.38;15.57;;;;;;;;;;5065019;28;24586;-58
2021/12/13 11:01:03;;;;;;;17.42;15.63;;;;;;;;;;5057696;28;24419;-57
2021/12/13 11:03:29;;;;;;;16.63;14.88;;;;;;;;;;5063580;28;24394;-58
2021/12/13 11:05:56;;;;;;;16.88;15.00;;;;;;;;;;5063688;28;24799;-58
2021/12/13 11:08:22;;;;;;;16.08;14.48;;;;;;;;;;5062723;28;24983;-58
2021/12/13 11:10:49;;;;;;;16.67;14.98;;;;;;;;;;5055819;28;24450;-58
2021/12/13 11:13:18;;;;;;;16.50;14.13;;;;;;;;;;5043197;28;24861;-59
2021/12/13 11:15:44;;;;;;;16.65;14.93;;;;;;;;;;5041723;28;24419;-59
2021/12/13 11:18:12;;;;;;;15.80;14.10;;;;;;;;;;5043459;28;25015;-59
2021/12/13 11:20:43;;;;;;;16.25;14.65;;;;;;;;;;5047498;28;24433;-59
2021/12/13 11:23:09;;;;;;;17.10;15.30;;;;;;;;;;5042804;28;25004;-59
2021/12/13 11:25:36;;;;;;;16.38;14.77;;;;;;;;;;5040999;28;24478;-58
2021/12/13 11:28:03;;;;;;;16.92;15.20;;;;;;;;;;5039799;28;24442;-59
2021/12/13 11:30:30;;;;;;;17.02;15.30;;;;;;;;;;5044051;28;24465;-58
2021/12/13 11:32:58;;;;;;;16.27;14.68;;;;;;;;;;5059019;28;24890;-58
2021/12/13 11:35:42;;;;;;;16.63;14.82;;;;;;;;;;5063835;28;24402;-58
2021/12/13 11:38:09;;;;;;;16.90;15.10;;;;;;;;;;5058942;28;25310;-58
2021/12/13 11:40:45;;;;;;;16.60;14.90;;;;;;;;;;5047467;28;24433;-58
2021/12/13 11:43:13;;;;;;;18.50;16.60;;;;;;;;;;5057684;28;24419;-58
2021/12/13 11:45:57;;;;;;;17.20;15.35;;;;;;;;;;5064817;28;24399;-58
2021/12/13 11:48:40;;;;;;;18.08;16.17;;;;;;;;;;5047602;28;24978;-59
2021/12/13 11:51:24;;;;;;;16.52;14.75;;;;;;;;;;5040345;28;24387;-58
2021/12/13 11:53:58;;;;;;;16.95;15.25;;;;;;;;;;5044071;28;24510;-59
2021/12/13 11:56:42;;;;;;;15.70;14.10;;;;;;;;;;5056049;28;24411;-59
2021/12/13 11:59:07;;;;;;;24.73;21.40;;;;;;;;;;5051752;28;24450;-58
2021/12/13 12:01:36;;;;;;;17.00;15.02;;;;;;;;;;5063178;28;24512;-59
2021/12/13 12:04:02;;;;;;;16.77;15.07;;;;;;;;;;5046577;28;24503;-59
2021/12/13 12:06:45;;;;;;;17.98;16.17;;;;;;;;;;5061980;28;24912;-58
2021/12/13 12:09:23;;;;;;;17.23;15.52;;;;;;;;;;5063912;28;24808;-59
2021/12/13 12:12:06;;;;;;;15.20;13.60;;;;;;;;;;5063689;28;25013;-58
2021/12/13 12:14:33;;;;;;;16.42;14.63;;;;;;;;;;5051803;28;24537;-58
2021/12/13 12:17:00;;;;;;;17.95;16.10;;;;;;;;;;5047554;28;24419;-59
2021/12/13 12:19:26;;;;;;;16.47;14.77;;;;;;;;;;5061405;28;24403;-59
2021/12/13 12:21:54;;;;;;;16.10;14.50;;;;;;;;;;5060596;28;24545;-59
2021/12/13 12:24:27;;;;;;;17.13;15.32;;;;;;;;;;5057397;28;24415;-59
2021/12/13 12:27:05;;;;;;;17.10;15.40;;;;;;;;;;5043164;28;24399;-59
2021/12/13 12:29:31;;;;;;;16.48;14.88;;;;;;;;;;5042208;28;24558;-59
2021/12/13 12:31:58;;;;;;;15.60;14.00;;;;;;;;;;5059603;28;25064;-59
2021/12/13 12:34:24;;;;;;;17.08;15.38;;;;;;;;;;5061016;28;24500;-59
2021/12/13 12:36:58;;;;;;;16.73;14.93;;;;;;;;;;5042124;28;24396;-58
2021/12/13 12:39:43;;;;;;;17.95;16.05;;;;;;;;;;5043324;28;24753;-58
2021/12/13 12:42:08;;;;;;;20.23;17.75;;;;;;;;;;5041034;28;24788;-59
2021/12/13 12:44:52;;;;;;;19.23;17.23;;;;;;;;;;5060367;28;24761;-59
2021/12/13 12:47:19;;;;;;;18.88;16.88;;;;;;;;;;5041838;28;24833;-59
2021/12/13 12:49:47;;;;;;;18.53;16.63;;;;;;;;;;5043697;28;24402;-59
2021/12/13 12:52:12;;;;;;;19.47;17.07;;;;;;;;;;5040023;28;24515;-59
2021/12/13 12:54:37;;;;;;;19.42;17.42;;;;;;;;;;5046616;28;24450;-59
2021/12/13 12:57:04;;;;;;;19.70;17.60;;;;;;;;;;5045064;28;24419;-59
2021/12/13 12:59:32;;;;;;;19.83;17.83;;;;;;;;;;5042693;28;24457;-59
2021/12/13 13:02:04;;;;;;;19.88;17.83;;;;;;;;;;5041310;28;24994;-59
2021/12/13 13:04:31;;;;;;;19.10;17.20;;;;;;;;;;5042214;28;24423;-60
2021/12/13 13:07:18;;;;;;;19.77;17.77;;;;;;;;;;5054488;28;24422;-59
2021/12/13 13:09:51;;;;;;;20.38;18.27;;;;;;;;;;5059528;28;25066;-59
2021/12/13 13:12:22;;;;;;;19.90;17.90;;;;;;;;;;5058680;28;24477;-59
2021/12/13 13:14:49;;;;;;;17.80;15.90;;;;;;;;;;5063439;28;24394;-59
2021/12/13 13:17:16;;;;;;;16.70;15.10;;;;;;;;;;5052782;28;24976;-59
2021/12/13 13:19:42;;;;;;;18.40;16.50;;;;;;;;;;5039125;28;24427;-59
2021/12/13 13:22:17;;;;;;;17.80;16.10;;;;;;;;;;5042798;28;25333;-59
2021/12/13 13:24:43;;;;;;;17.75;15.95;;;;;;;;;;5061634;28;24496;-59
2021/12/13 13:27:09;;;;;;;17.38;15.68;;;;;;;;;;5059259;28;24472;-59
2021/12/13 13:29:35;;;;;;;17.42;15.70;;;;;;;;;;5062684;28;24460;-59
2021/12/13 13:32:00;;;;;;;17.27;15.53;;;;;;;;;;5056008;28;24838;-59
2021/12/13 13:34:29;;;;;;;17.33;15.73;;;;;;;;;;5045952;28;24522;-59
2021/12/13 13:36:56;;;;;;;16.20;14.60;;;;;;;;;;5061286;28;24469;-59
2021/12/13 13:39:30;;;;;;;17.13;15.43;;;;;;;;;;5060551;28;24489;-59
2021/12/13 13:42:09;;;;;;;15.50;13.90;;;;;;;;;;5040574;28;24936;-59
2021/12/13 13:44:40;;;;;;;15.43;13.85;;;;;;;;;;5038926;28;24497;-59
2021/12/13 13:47:09;;;;;;;16.73;15.02;;;;;;;;;;5040959;28;24456;-59
2021/12/13 13:49:35;;;;;;;17.30;15.60;;;;;;;;;;5041636;28;24441;-59
2021/12/13 13:52:10;;;;;;;14.90;13.50;;;;;;;;;;5042040;28;24419;-59
2021/12/13 13:54:35;;;;;;;16.30;14.80;;;;;;;;;;5062610;28;24954;-57
2021/12/13 13:57:00;;;;;;;16.37;14.77;;;;;;;;;;5060889;28;24478;-58
2021/12/13 13:59:26;;;;;;;15.35;13.75;;;;;;;;;;5061637;28;25297;-60
2021/12/13 14:01:58;;;;;;;15.75;14.25;;;;;;;;;;5045137;28;24439;-60
2021/12/13 14:04:31;;;;;;;17.30;15.60;;;;;;;;;;5047031;28;24401;-60
2021/12/13 14:07:00;;;;;;;15.20;13.77;;;;;;;;;;5044745;28;24384;-58
2021/12/13 14:09:27;;;;;;;15.80;14.20;;;;;;;;;;5045632;28;24396;-58
2021/12/13 14:11:55;;;;;;;15.65;14.15;;;;;;;;;;5056816;28;24421;-58
2021/12/13 14:14:21;;;;;;;15.05;13.55;;;;;;;;;;5062824;28;24415;-58
2021/12/13 14:16:48;;;;;;;14.68;13.27;;;;;;;;;;5066720;28;24510;-59
2021/12/13 14:19:23;;;;;;;15.05;13.55;;;;;;;;;;5064993;28;24497;-58
2021/12/13 14:21:50;;;;;;;14.60;13.10;;;;;;;;;;5055470;28;25039;-59
2021/12/13 14:24:15;;;;;;;13.80;12.50;;;;;;;;;;5046467;28;24399;-59
2021/12/13 14:26:40;;;;;;;15.00;13.40;;;;;;;;;;5045171;28;24520;-59
2021/12/13 14:29:07;;;;;;;14.20;12.90;;;;;;;;;;5059355;28;24433;-59
2021/12/13 14:31:43;;;;;;;14.80;13.30;;;;;;;;;;5047324;28;24477;-59
2021/12/13 14:34:13;;;;;;;15.10;13.60;;;;;;;;;;5055748;28;24453;-59
2021/12/13 14:36:46;;;;;;;14.95;13.45;;;;;;;;;;5050438;28;24426;-59
2021/12/13 14:39:23;;;;;;;15.23;13.73;;;;;;;;;;5057317;28;24977;-59
2021/12/13 14:41:49;;;;;;;18.08;16.17;;;;;;;;;;5048290;28;24940;-59
2021/12/13 14:44:17;;;;;;;17.10;15.40;;;;;;;;;;5050514;28;24419;-58